createdAt,value
2022-07-25T00:01:20.685Z,0.85
2022-07-25T00:03:49.049Z,0.50
2022-07-25T00:06:17.796Z,0.50
2022-07-25T00:08:45.988Z,0.60
2022-07-25T00:11:13.819Z,0.50
2022-07-25T00:13:41.613Z,0.40
2022-07-25T00:16:09.808Z,0.75
2022-07-25T00:18:39.100Z,0.50
2022-07-25T00:21:07.247Z,0.70
2022-07-25T00:23:35.061Z,0.75
2022-07-25T00:26:02.954Z,0.60
2022-07-25T00:28:30.767Z,0.90
2022-07-25T00:30:58.693Z,0.98
2022-07-25T00:33:26.578Z,0.60
2022-07-25T00:35:55.813Z,0.80
2022-07-25T00:38:23.624Z,0.80
2022-07-25T00:40:55.495Z,0.60
2022-07-25T00:43:23.642Z,0.77
2022-07-25T00:45:51.513Z,1.98
2022-07-25T00:48:19.446Z,0.68
2022-07-25T00:50:47.368Z,1.00
2022-07-25T00:53:17.046Z,0.68
2022-07-25T00:55:45.006Z,0.87
2022-07-25T00:58:12.937Z,0.80
2022-07-25T01:00:41.008Z,1.67
2022-07-25T01:03:08.925Z,0.93
2022-07-25T01:05:36.812Z,0.80
2022-07-25T01:08:05.055Z,0.80
2022-07-25T01:10:34.874Z,1.10
2022-07-25T01:13:03.468Z,1.17
2022-07-25T01:15:31.385Z,0.73
2022-07-25T01:17:59.736Z,1.30
2022-07-25T01:20:30.864Z,0.80
2022-07-25T01:22:59.816Z,0.80
2022-07-25T01:25:28.949Z,0.70
2022-07-25T01:27:57.849Z,0.60
2022-07-25T01:30:26.745Z,0.50
2022-07-25T01:32:54.793Z,0.60
2022-07-25T01:35:22.648Z,0.70
2022-07-25T01:37:51.846Z,0.60
2022-07-25T01:40:19.775Z,0.70
2022-07-25T01:42:47.937Z,0.80
2022-07-25T01:45:15.828Z,0.60
2022-07-25T01:47:43.652Z,0.63
2022-07-25T01:50:12.061Z,0.50
2022-07-25T01:52:40.656Z,0.80
2022-07-25T01:55:10.510Z,0.80
2022-07-25T01:57:39.148Z,0.80
2022-07-25T02:00:11.595Z,0.60
2022-07-25T02:02:44.315Z,0.60
2022-07-25T02:05:13.968Z,0.80
2022-07-25T02:07:41.820Z,0.60
2022-07-25T02:10:11.470Z,0.67
2022-07-25T02:12:39.277Z,0.70
2022-07-25T02:15:08.571Z,0.63
2022-07-25T02:17:36.358Z,0.60
2022-07-25T02:20:05.153Z,0.70
2022-07-25T02:22:32.955Z,0.60
2022-07-25T02:25:00.826Z,0.70
2022-07-25T02:27:29.983Z,0.77
2022-07-25T02:29:57.799Z,0.57
2022-07-25T02:32:25.593Z,0.50
2022-07-25T02:34:53.751Z,1.00
2022-07-25T02:37:21.563Z,0.70
2022-07-25T02:39:49.622Z,1.13
2022-07-25T02:42:17.671Z,0.83
2022-07-25T02:44:46.824Z,0.90
2022-07-25T02:47:14.633Z,1.20
2022-07-25T02:49:42.465Z,1.07
2022-07-25T02:52:10.391Z,0.67
2022-07-25T02:54:38.264Z,1.30
2022-07-25T02:57:06.079Z,1.23
2022-07-25T02:59:33.881Z,1.30
2022-07-25T03:02:03.043Z,0.93
2022-07-25T03:04:31.358Z,1.17
2022-07-25T03:06:59.168Z,1.20
2022-07-25T03:09:26.992Z,1.10
2022-07-25T03:11:54.866Z,1.10
2022-07-25T03:14:22.716Z,0.90
2022-07-25T03:16:50.555Z,0.90
2022-07-25T03:19:19.751Z,0.80
2022-07-25T03:21:47.563Z,0.90
2022-07-25T03:24:15.508Z,0.80
2022-07-25T03:26:43.319Z,0.90
2022-07-25T03:29:11.155Z,1.03
2022-07-25T03:31:40.052Z,0.80
2022-07-25T03:34:08.301Z,0.60
2022-07-25T03:36:37.699Z,1.00
2022-07-25T03:39:05.788Z,0.60
2022-07-25T03:41:33.899Z,0.70
2022-07-25T03:44:01.698Z,0.87
2022-07-25T03:46:29.536Z,0.80
2022-07-25T03:48:57.539Z,0.67
2022-07-25T03:51:25.603Z,0.70
2022-07-25T03:54:04.498Z,0.67
2022-07-25T03:56:34.115Z,0.70
2022-07-25T03:59:01.968Z,0.80
2022-07-25T04:01:29.914Z,0.60
2022-07-25T04:03:57.819Z,1.10
2022-07-25T04:06:26.275Z,0.80
2022-07-25T04:08:56.245Z,0.70
2022-07-25T04:11:24.252Z,0.80
2022-07-25T04:13:52.696Z,0.80
2022-07-25T04:16:22.154Z,0.70
2022-07-25T04:18:50.705Z,1.10
2022-07-25T04:21:19.848Z,1.10
2022-07-25T04:23:47.749Z,1.20
2022-07-25T04:26:17.453Z,1.30
2022-07-25T04:28:45.349Z,1.20
2022-07-25T04:31:13.301Z,1.33
2022-07-25T04:33:41.767Z,1.10
2022-07-25T04:36:10.107Z,1.20
2022-07-25T04:38:38.368Z,1.27
2022-07-25T04:41:06.447Z,1.10
2022-07-25T04:43:35.753Z,1.73
2022-07-25T04:46:03.726Z,1.20
2022-07-25T04:48:31.816Z,1.63
2022-07-25T04:50:59.737Z,1.60
2022-07-25T04:53:27.616Z,2.23
2022-07-25T04:55:55.469Z,1.90
2022-07-25T04:58:23.389Z,2.33
2022-07-25T05:00:52.997Z,2.13
2022-07-25T05:03:20.986Z,1.90
2022-07-25T05:05:48.865Z,1.63
2022-07-25T05:08:16.700Z,1.70
2022-07-25T05:10:44.634Z,1.80
2022-07-25T05:13:12.540Z,4.73
2022-07-25T05:15:41.160Z,1.77
2022-07-25T05:18:10.421Z,2.07
2022-07-25T05:20:38.237Z,2.40
2022-07-25T05:23:06.152Z,2.10
2022-07-25T05:25:34.428Z,1.87
2022-07-25T05:28:03.058Z,2.00
2022-07-25T05:30:31.004Z,1.77
2022-07-25T05:32:58.889Z,2.10
2022-07-25T05:35:28.300Z,2.10
2022-07-25T05:37:56.317Z,2.17
2022-07-25T05:40:24.442Z,2.23
2022-07-25T05:42:52.302Z,2.27
2022-07-25T05:45:20.180Z,2.10
2022-07-25T05:47:48.005Z,2.97
2022-07-25T05:50:15.873Z,3.00
2022-07-25T05:52:45.223Z,3.03
2022-07-25T05:55:13.706Z,2.83
2022-07-25T05:57:41.563Z,2.50
2022-07-25T06:00:10.470Z,2.60
2022-07-25T06:02:38.507Z,3.00
2022-07-25T06:05:06.744Z,2.70
2022-07-25T06:07:34.656Z,2.40
2022-07-25T06:10:04.481Z,4.50
2022-07-25T06:12:33.651Z,2.70
2022-07-25T06:15:05.034Z,2.80
2022-07-25T06:17:33.174Z,3.00
2022-07-25T06:20:01.233Z,3.20
2022-07-25T06:22:29.020Z,3.53
2022-07-25T06:24:56.835Z,3.50
2022-07-25T06:27:29.223Z,2.80
2022-07-25T06:29:57.554Z,3.53
2022-07-25T06:32:25.478Z,4.60
2022-07-25T06:34:53.293Z,4.83
2022-07-25T06:37:21.127Z,3.80
2022-07-25T06:39:49.259Z,3.60
2022-07-25T06:42:17.073Z,3.27
2022-07-25T06:44:46.579Z,3.07
2022-07-25T06:47:14.658Z,2.85
2022-07-25T06:49:43.379Z,3.33
2022-07-25T06:52:11.443Z,3.37
2022-07-25T06:54:39.502Z,3.90
2022-07-25T06:57:08.981Z,3.53
2022-07-25T06:59:36.811Z,3.20
2022-07-25T07:02:05.971Z,2.95
2022-07-25T07:04:33.808Z,5.30
2022-07-25T07:07:01.676Z,3.47
2022-07-25T07:09:29.787Z,3.90
2022-07-25T07:11:57.716Z,4.00
2022-07-25T07:14:25.581Z,4.05
2022-07-25T07:16:53.414Z,3.45
2022-07-25T07:19:22.629Z,4.10
2022-07-25T07:21:51.485Z,5.00
2022-07-25T07:24:23.831Z,4.30
2022-07-25T07:26:52.604Z,4.38
2022-07-25T07:29:20.502Z,7.43
2022-07-25T07:31:48.386Z,4.03
2022-07-25T07:34:16.615Z,3.25
2022-07-25T07:36:46.015Z,3.95
2022-07-25T07:39:13.956Z,4.40
2022-07-25T07:41:41.878Z,4.05
2022-07-25T07:44:09.743Z,5.47
2022-07-25T07:46:37.749Z,4.15
2022-07-25T07:49:05.948Z,4.10
2022-07-25T07:51:34.014Z,3.95
2022-07-25T07:54:20.912Z,4.30
2022-07-25T07:56:48.986Z,4.32
2022-07-25T07:59:17.104Z,4.95
2022-07-25T08:01:44.933Z,6.53
2022-07-25T08:04:12.973Z,5.00
2022-07-25T08:06:42.978Z,4.60
2022-07-25T08:09:12.282Z,4.47
2022-07-25T08:11:40.094Z,5.00
2022-07-25T08:14:08.336Z,4.55
2022-07-25T08:16:36.471Z,4.93
2022-07-25T08:19:04.583Z,5.93
2022-07-25T08:21:32.387Z,4.93
2022-07-25T08:24:00.233Z,5.53
2022-07-25T08:26:31.225Z,4.80
2022-07-25T08:29:17.610Z,5.10
2022-07-25T08:31:45.839Z,5.85
2022-07-25T08:34:13.800Z,6.38
2022-07-25T08:36:41.631Z,5.00
2022-07-25T08:39:10.424Z,4.90
2022-07-25T08:41:41.911Z,4.28
2022-07-25T08:44:10.549Z,5.13
2022-07-25T08:46:41.651Z,4.95
2022-07-25T08:49:10.640Z,4.68
2022-07-25T08:51:40.300Z,5.28
2022-07-25T08:54:08.771Z,5.18
2022-07-25T08:56:36.962Z,4.82
2022-07-25T08:59:06.190Z,5.78
2022-07-25T09:01:35.115Z,5.28
2022-07-25T09:04:04.876Z,5.10
2022-07-25T09:06:33.087Z,5.07
2022-07-25T09:09:04.751Z,5.70
2022-07-25T09:11:35.137Z,5.70
2022-07-25T09:14:06.813Z,4.85
2022-07-25T09:16:40.097Z,5.40
2022-07-25T09:19:11.857Z,5.50
2022-07-25T09:21:41.004Z,5.85
2022-07-25T09:24:13.726Z,5.38
2022-07-25T09:26:49.604Z,5.38
2022-07-25T09:29:23.115Z,5.95
2022-07-25T09:31:54.052Z,5.57
2022-07-25T09:34:34.692Z,6.05
2022-07-25T09:37:03.880Z,6.97
2022-07-25T09:39:45.785Z,5.18
2022-07-25T09:42:23.113Z,6.18
2022-07-25T09:45:07.902Z,6.50
2022-07-25T09:47:38.595Z,7.55
2022-07-25T09:50:07.727Z,7.72
2022-07-25T09:52:36.775Z,5.85
2022-07-25T09:55:06.630Z,6.18
2022-07-25T09:57:34.519Z,6.88
2022-07-25T10:00:02.914Z,6.35
2022-07-25T10:02:49.262Z,6.05
2022-07-25T10:05:20.760Z,8.07
2022-07-25T10:07:51.469Z,6.05
2022-07-25T10:10:26.230Z,5.93
2022-07-25T10:13:10.288Z,5.95
2022-07-25T10:15:44.593Z,6.55
2022-07-25T10:18:14.851Z,9.35
2022-07-25T10:20:44.046Z,9.52
2022-07-25T10:23:22.255Z,8.02
2022-07-25T10:26:01.884Z,6.18
2022-07-25T10:28:39.317Z,5.97
2022-07-25T10:31:17.360Z,7.32
2022-07-25T10:33:49.727Z,6.80
2022-07-25T10:36:17.719Z,6.95
2022-07-25T10:38:46.010Z,6.30
2022-07-25T10:41:15.317Z,6.72
2022-07-25T10:43:48.508Z,6.65
2022-07-25T10:46:20.545Z,6.50
2022-07-25T10:49:00.703Z,9.07
2022-07-25T10:51:29.535Z,8.15
2022-07-25T10:53:57.656Z,8.68
2022-07-25T10:56:28.009Z,7.03
2022-07-25T10:58:56.955Z,6.22
2022-07-25T11:01:26.978Z,6.30
2022-07-25T11:03:58.383Z,6.88
2022-07-25T11:06:37.004Z,6.47
2022-07-25T11:09:06.248Z,7.00
2022-07-25T11:11:35.972Z,7.78
2022-07-25T11:14:04.605Z,6.50
2022-07-25T11:16:32.465Z,10.50
2022-07-25T11:19:00.430Z,7.15
2022-07-25T11:21:28.186Z,7.18
2022-07-25T11:23:57.372Z,8.75
2022-07-25T11:26:25.201Z,7.40
2022-07-25T11:28:53.140Z,8.68
2022-07-25T11:31:23.898Z,6.82
2022-07-25T11:33:52.008Z,6.25
2022-07-25T11:36:20.012Z,7.65
2022-07-25T11:38:50.280Z,6.65
2022-07-25T11:41:29.257Z,7.28
2022-07-25T11:43:57.398Z,6.22
2022-07-25T11:46:25.752Z,6.63
2022-07-25T11:49:05.909Z,6.97
2022-07-25T11:51:38.686Z,6.30
2022-07-25T11:54:11.753Z,6.25
2022-07-25T11:56:43.905Z,6.60
2022-07-25T11:59:12.469Z,6.97
2022-07-25T12:01:42.739Z,7.70
2022-07-25T12:04:12.897Z,6.25
2022-07-25T12:06:41.233Z,6.25
2022-07-25T12:09:19.263Z,6.72
2022-07-25T12:11:49.951Z,6.55
2022-07-25T12:14:18.341Z,6.85
2022-07-25T12:16:46.223Z,7.45
2022-07-25T12:19:21.463Z,5.70
2022-07-25T12:21:49.321Z,6.43
2022-07-25T12:24:17.193Z,6.50
2022-07-25T12:26:45.119Z,5.68
2022-07-25T12:29:14.372Z,5.25
2022-07-25T12:31:42.184Z,5.70
2022-07-25T12:34:10.054Z,5.30
2022-07-25T12:36:43.982Z,7.22
2022-07-25T12:39:12.492Z,8.45
2022-07-25T12:41:42.691Z,6.78
2022-07-25T12:44:10.964Z,6.10
2022-07-25T12:46:47.245Z,6.53
2022-07-25T12:49:16.959Z,6.28
2022-07-25T12:51:45.011Z,6.30
2022-07-25T12:54:12.892Z,7.82
2022-07-25T12:56:42.506Z,6.43
2022-07-25T12:59:10.542Z,5.65
2022-07-25T13:01:39.853Z,5.80
2022-07-25T13:04:09.314Z,7.70
2022-07-25T13:06:38.915Z,5.75
2022-07-25T13:09:07.708Z,6.97
2022-07-25T13:11:35.866Z,5.65
2022-07-25T13:14:03.866Z,5.38
2022-07-25T13:16:31.812Z,5.55
2022-07-25T13:19:01.146Z,5.90
2022-07-25T13:21:29.582Z,5.45
2022-07-25T13:23:57.403Z,5.82
2022-07-25T13:26:25.465Z,5.50
2022-07-25T13:28:57.923Z,5.45
2022-07-25T13:31:27.687Z,5.68
2022-07-25T13:33:55.867Z,5.63
2022-07-25T13:36:25.007Z,6.97
2022-07-25T13:38:52.844Z,6.55
2022-07-25T13:41:21.001Z,6.40
2022-07-25T13:43:48.905Z,6.22
2022-07-25T13:46:17.953Z,6.15
2022-07-25T13:48:46.001Z,5.55
2022-07-25T13:51:14.587Z,5.93
2022-07-25T13:53:44.906Z,5.45
2022-07-25T13:56:13.869Z,6.82
2022-07-25T13:58:42.021Z,5.97
2022-07-25T14:01:11.674Z,6.25
2022-07-25T14:03:40.025Z,6.03
2022-07-25T14:06:10.702Z,5.53
2022-07-25T14:08:40.202Z,5.30
2022-07-25T14:11:09.441Z,4.63
2022-07-25T14:13:37.559Z,5.03
2022-07-25T14:16:06.313Z,5.72
2022-07-25T14:18:34.107Z,6.43
2022-07-25T14:21:01.932Z,4.75
2022-07-25T14:23:30.318Z,5.50
2022-07-25T14:25:59.443Z,5.03
2022-07-25T14:28:28.654Z,4.93
2022-07-25T14:30:56.647Z,5.00
2022-07-25T14:33:24.477Z,4.70
2022-07-25T14:35:52.301Z,5.55
2022-07-25T14:38:20.144Z,5.32
2022-07-25T14:40:47.998Z,5.57
2022-07-25T14:43:15.872Z,4.68
2022-07-25T14:45:45.079Z,4.22
2022-07-25T14:48:12.918Z,4.65
2022-07-25T14:50:41.763Z,4.13
2022-07-25T14:53:09.612Z,3.88
2022-07-25T14:55:37.897Z,4.00
2022-07-25T14:58:05.855Z,3.50
2022-07-25T15:00:33.892Z,3.22
2022-07-25T15:03:03.100Z,3.65
2022-07-25T15:05:30.926Z,4.22
2022-07-25T15:07:58.929Z,4.07
2022-07-25T15:10:26.747Z,3.67
2022-07-25T15:13:13.969Z,3.53
2022-07-25T15:15:42.365Z,4.07
2022-07-25T15:18:14.034Z,4.25
2022-07-25T15:20:42.208Z,4.25
2022-07-25T15:23:10.023Z,3.60
2022-07-25T15:28:26.169Z,4.20
2022-07-25T15:30:54.011Z,4.18
2022-07-25T15:33:23.338Z,4.03
2022-07-25T15:35:51.149Z,4.18
2022-07-25T15:38:19.477Z,5.07
2022-07-25T15:40:48.025Z,5.63
2022-07-25T15:43:15.964Z,6.55
2022-07-25T15:45:45.926Z,4.65
2022-07-25T15:48:16.777Z,4.85
2022-07-25T15:50:47.669Z,4.30
2022-07-25T15:53:16.291Z,2.90
2022-07-25T15:55:44.429Z,4.63
2022-07-25T15:58:13.004Z,4.60
2022-07-25T16:00:41.788Z,4.28
2022-07-25T16:03:12.182Z,4.28
2022-07-25T16:05:40.905Z,4.40
2022-07-25T16:08:11.127Z,4.70
2022-07-25T16:10:39.830Z,3.85
2022-07-25T16:13:07.826Z,3.50
2022-07-25T16:15:36.375Z,3.38
2022-07-25T16:18:04.441Z,6.18
2022-07-25T16:20:33.314Z,4.45
2022-07-25T16:23:01.601Z,4.28
2022-07-25T16:25:31.521Z,4.03
2022-07-25T16:28:00.312Z,4.00
2022-07-25T16:30:28.526Z,4.65
2022-07-25T16:32:56.459Z,4.97
2022-07-25T16:35:24.965Z,4.10
2022-07-25T16:37:52.928Z,3.78
2022-07-25T16:40:21.139Z,3.95
2022-07-25T16:42:52.283Z,4.82
2022-07-25T16:45:20.312Z,5.30
2022-07-25T16:47:48.107Z,5.10
2022-07-25T16:50:15.969Z,6.43
2022-07-25T16:52:44.275Z,5.30
2022-07-25T16:55:12.248Z,4.78
2022-07-25T16:57:40.225Z,4.25
2022-07-25T17:00:11.057Z,4.65
2022-07-25T17:02:39.796Z,5.82
2022-07-25T17:05:08.171Z,5.00
2022-07-25T17:07:36.241Z,5.45
2022-07-25T17:10:05.105Z,3.70
2022-07-25T17:12:33.039Z,4.43
2022-07-25T17:15:01.035Z,5.38
2022-07-25T17:17:30.286Z,4.05
2022-07-25T17:20:00.165Z,5.30
2022-07-25T17:22:28.348Z,4.03
2022-07-25T17:24:56.257Z,3.60
2022-07-25T17:27:25.297Z,4.07
2022-07-25T17:29:53.100Z,3.40
2022-07-25T17:32:23.013Z,4.30
2022-07-25T17:34:54.488Z,5.38
2022-07-25T17:37:22.835Z,4.72
2022-07-25T17:39:50.708Z,3.40
2022-07-25T17:42:22.264Z,3.35
2022-07-25T17:44:50.359Z,3.42
2022-07-25T17:47:19.170Z,4.30
2022-07-25T17:49:47.106Z,3.80
2022-07-25T17:52:17.790Z,3.58
2022-07-25T17:54:45.772Z,4.22
2022-07-25T17:57:13.570Z,3.50
2022-07-25T17:59:41.602Z,3.65
2022-07-25T18:02:09.753Z,3.00
2022-07-25T18:04:38.037Z,2.72
2022-07-25T18:07:08.527Z,2.90
2022-07-25T18:09:38.071Z,2.78
2022-07-25T18:12:06.722Z,2.97
2022-07-25T18:14:34.897Z,2.58
2022-07-25T18:17:02.897Z,2.00
2022-07-25T18:19:30.855Z,3.78
2022-07-25T18:21:59.049Z,1.80
2022-07-25T18:24:29.351Z,1.60
2022-07-25T18:27:00.308Z,1.80
2022-07-25T18:29:28.156Z,1.70
2022-07-25T18:31:56.003Z,1.55
2022-07-25T18:34:23.958Z,2.17
2022-07-25T18:36:51.899Z,2.65
2022-07-25T18:39:19.795Z,2.17
2022-07-25T18:41:47.852Z,2.50
2022-07-25T18:44:17.641Z,3.15
2022-07-25T18:46:46.228Z,4.40
2022-07-25T18:49:14.301Z,4.82
2022-07-25T18:51:42.231Z,4.78
2022-07-25T18:54:10.767Z,5.30
2022-07-25T18:56:38.885Z,5.45
2022-07-25T18:59:07.314Z,5.60
2022-07-25T19:01:37.288Z,5.80
2022-07-25T19:04:06.176Z,5.53
2022-07-25T19:06:34.283Z,5.50
2022-07-25T19:09:02.173Z,5.60
2022-07-25T19:11:30.077Z,5.50
2022-07-25T19:13:57.917Z,5.50
2022-07-25T19:16:26.156Z,4.47
2022-07-25T19:18:55.549Z,4.43
2022-07-25T19:21:23.615Z,5.07
2022-07-25T19:23:51.642Z,4.90
2022-07-25T19:26:20.145Z,4.47
2022-07-25T19:28:48.199Z,4.10
2022-07-25T19:31:16.085Z,4.63
2022-07-25T19:33:45.647Z,4.30
2022-07-25T19:36:14.989Z,4.25
2022-07-25T19:38:43.058Z,4.07
2022-07-25T19:41:11.077Z,3.70
2022-07-25T19:43:38.899Z,3.88
2022-07-25T19:46:06.942Z,3.67
2022-07-25T19:48:34.958Z,3.97
2022-07-25T19:51:03.157Z,3.67
2022-07-25T19:53:32.469Z,3.50
2022-07-25T19:56:01.344Z,3.05
2022-07-25T19:58:29.401Z,2.83
2022-07-25T20:00:57.394Z,2.53
2022-07-25T20:03:25.264Z,2.55
2022-07-25T20:05:53.487Z,2.70
2022-07-25T20:08:21.390Z,2.70
2022-07-25T20:10:50.762Z,2.15
2022-07-25T20:13:18.682Z,2.20
2022-07-25T20:15:46.627Z,2.08
2022-07-25T20:18:19.266Z,1.92
2022-07-25T20:20:47.782Z,2.00
2022-07-25T20:23:15.683Z,2.05
2022-07-25T20:25:48.028Z,2.20
2022-07-25T20:28:17.352Z,1.98
2022-07-25T20:30:45.404Z,2.25
2022-07-25T20:33:13.341Z,2.25
2022-07-25T20:35:41.194Z,1.90
2022-07-25T20:38:10.392Z,2.13
2022-07-25T20:40:48.149Z,1.70
2022-07-25T20:43:19.400Z,1.98
2022-07-25T20:45:47.705Z,1.77
2022-07-25T20:48:15.769Z,2.00
2022-07-25T20:50:44.070Z,2.03
2022-07-25T20:53:12.860Z,1.88
2022-07-25T20:55:40.710Z,2.00
2022-07-25T20:58:08.791Z,2.38
2022-07-25T21:00:38.145Z,2.40
2022-07-25T21:03:08.046Z,2.28
2022-07-25T21:05:37.730Z,1.83
2022-07-25T21:08:06.089Z,2.10
2022-07-25T21:10:34.284Z,1.90
2022-07-25T21:13:02.460Z,2.00
2022-07-25T21:15:30.896Z,2.30
2022-07-25T21:18:00.687Z,1.98
2022-07-25T21:20:28.636Z,1.73
2022-07-25T21:22:56.538Z,1.55
2022-07-25T21:25:24.409Z,1.60
2022-07-25T21:27:52.345Z,1.65
2022-07-25T21:30:20.165Z,1.60
2022-07-25T21:32:48.146Z,1.67
2022-07-25T21:35:18.167Z,1.30
2022-07-25T21:37:46.249Z,1.30
2022-07-25T21:40:14.292Z,1.65
2022-07-25T21:42:42.628Z,1.40
2022-07-25T21:45:11.413Z,1.40
2022-07-25T21:47:39.775Z,1.30
2022-07-25T21:50:25.856Z,1.30
2022-07-25T21:52:55.267Z,1.30
2022-07-25T21:55:23.139Z,1.10
2022-07-25T21:57:52.326Z,1.80
2022-07-25T22:00:21.391Z,1.13
2022-07-25T22:02:49.571Z,1.27
2022-07-25T22:05:18.809Z,1.15
2022-07-25T22:07:47.612Z,1.23
2022-07-25T22:10:18.445Z,1.13
2022-07-25T22:12:46.423Z,1.30
2022-07-25T22:15:15.077Z,1.13
2022-07-25T22:17:48.345Z,1.30
2022-07-25T22:20:17.839Z,0.90
2022-07-25T22:22:46.226Z,1.05
2022-07-25T22:25:14.420Z,0.77
2022-07-25T22:27:43.709Z,0.90
2022-07-25T22:30:18.482Z,1.20
2022-07-25T22:32:47.794Z,0.90
2022-07-25T22:35:15.992Z,1.05
2022-07-25T22:37:44.204Z,0.85
2022-07-25T22:40:13.303Z,0.93
2022-07-25T22:42:41.656Z,1.23
2022-07-25T22:45:11.790Z,1.08
2022-07-25T22:47:39.730Z,1.23
2022-07-25T22:50:09.794Z,1.30
2022-07-25T22:52:37.769Z,1.20
2022-07-25T22:55:06.303Z,1.20
2022-07-25T22:57:37.146Z,1.20
2022-07-25T23:00:09.218Z,1.40
2022-07-25T23:02:38.523Z,1.40
2022-07-25T23:05:07.489Z,2.00
2022-07-25T23:07:35.772Z,1.88
2022-07-25T23:10:05.274Z,1.70
2022-07-25T23:12:33.095Z,1.67
2022-07-25T23:15:01.033Z,1.55
2022-07-25T23:17:29.006Z,2.23
2022-07-25T23:19:58.751Z,1.45
2022-07-25T23:22:30.793Z,1.50
2022-07-25T23:24:59.563Z,1.52
2022-07-25T23:27:27.868Z,1.48
2022-07-25T23:29:57.320Z,1.40
2022-07-25T23:32:25.187Z,1.40
2022-07-25T23:34:53.064Z,1.65
2022-07-25T23:37:22.207Z,1.73
2022-07-25T23:39:50.068Z,1.52
2022-07-25T23:42:17.852Z,2.05
2022-07-25T23:44:46.053Z,1.70
2022-07-25T23:47:15.041Z,1.58
2022-07-25T23:49:43.246Z,1.50
2022-07-25T23:52:11.150Z,1.95
2022-07-25T23:54:40.981Z,1.85
2022-07-25T23:57:09.404Z,1.90
2022-07-25T23:59:37.405Z,2.25
